< < Back
Terminal Aerodrome Forecast


Current Version              Previous Versions:   1  2  3  4  5  6  7  8  9  

Terminal Aerodrome Forecast

847
FTUS42 KFFC 272103 AAA
TAFFTY
TAF AMD
KFTY 272103Z 2721/2818 32010G22KT P6SM SCT060
     FM272200 32010G20KT P6SM BKN060
     FM280000 32010KT P6SM BKN045
     FM280500 32008KT P6SM BKN030
     FM281100 32007KT P6SM FEW050=



Latest METAR

026
SAUS70 KWBC 280100 RRE
MTRFTY
METAR KFTY 280053Z 33014G22KT 10SM OVC075 09/M02 A2994 RMK AO2 SLP137
T00891017


USA.gov is the U.S. government's official web portal to all federal, state and local government web resources and services.